createdAt,value
2019-05-19T00:00:05.909Z,92.62
2019-05-19T00:02:34.638Z,92.40
2019-05-19T00:05:04.434Z,93.40
2019-05-19T00:07:33.181Z,87.80
2019-05-19T00:10:02.200Z,96.60
2019-05-19T00:12:30.941Z,96.57
2019-05-19T00:14:59.662Z,93.67
2019-05-19T00:17:28.421Z,95.80
2019-05-19T00:19:57.170Z,98.12
2019-05-19T00:22:25.905Z,93.62
2019-05-19T00:24:54.638Z,92.82
2019-05-19T00:27:23.385Z,95.20
2019-05-19T00:29:52.109Z,92.62
2019-05-19T00:32:20.925Z,99.32
2019-05-19T00:34:49.657Z,94.30
2019-05-19T00:37:18.419Z,92.55
2019-05-19T00:39:47.161Z,96.80
2019-05-19T00:42:15.873Z,90.97
2019-05-19T00:44:44.620Z,94.60
2019-05-19T00:47:13.431Z,98.50
2019-05-19T00:49:42.172Z,95.57
2019-05-19T00:52:10.921Z,95.92
2019-05-19T00:54:39.679Z,98.37
2019-05-19T00:57:09.141Z,94.72
2019-05-19T00:59:39.629Z,103.42
2019-05-19T01:02:08.447Z,93.85
2019-05-19T01:04:37.175Z,99.67
2019-05-19T01:07:05.979Z,96.00
2019-05-19T01:09:34.713Z,98.45
2019-05-19T01:12:03.457Z,101.18
2019-05-19T01:14:32.186Z,101.82
2019-05-19T01:17:00.921Z,102.25
2019-05-19T01:19:29.688Z,102.95
2019-05-19T01:22:00.799Z,100.58
2019-05-19T01:24:29.542Z,104.50
2019-05-19T01:26:58.279Z,102.27
2019-05-19T01:29:27.005Z,106.32
2019-05-19T01:31:55.743Z,103.80
2019-05-19T01:34:24.523Z,103.50
2019-05-19T01:36:53.260Z,105.60
2019-05-19T01:39:22.029Z,104.15
2019-05-19T01:41:50.768Z,107.92
2019-05-19T01:44:19.530Z,104.83
2019-05-19T01:46:48.262Z,106.22
2019-05-19T01:49:16.956Z,108.25
2019-05-19T01:51:45.705Z,107.55
2019-05-19T01:54:16.750Z,109.90
2019-05-19T01:56:44.814Z,104.92
2019-05-19T01:59:13.575Z,106.52
2019-05-19T02:01:42.306Z,105.65
2019-05-19T02:04:11.084Z,105.43
2019-05-19T02:06:39.790Z,105.63
2019-05-19T02:09:08.536Z,106.50
2019-05-19T02:11:37.273Z,108.47
2019-05-19T02:14:06.070Z,108.07
2019-05-19T02:16:34.826Z,108.22
2019-05-19T02:19:03.561Z,106.37
2019-05-19T02:21:32.289Z,103.58
2019-05-19T02:24:01.038Z,108.25
2019-05-19T02:26:29.767Z,108.78
2019-05-19T02:28:58.513Z,107.10
2019-05-19T02:31:27.244Z,109.90
2019-05-19T02:33:55.966Z,106.43
2019-05-19T02:36:24.642Z,110.20
2019-05-19T02:38:53.377Z,109.35
2019-05-19T02:41:24.434Z,111.30
2019-05-19T02:43:54.353Z,106.83
2019-05-19T02:46:24.501Z,105.32
2019-05-19T02:48:54.065Z,107.17
2019-05-19T02:51:24.363Z,108.20
2019-05-19T02:53:54.849Z,110.52
2019-05-19T02:56:25.750Z,109.15
2019-05-19T02:58:56.045Z,105.87
2019-05-19T03:01:24.758Z,106.85
2019-05-19T03:03:53.507Z,105.43
2019-05-19T03:06:22.238Z,113.97
2019-05-19T03:08:50.986Z,107.72
2019-05-19T03:11:19.810Z,106.78
2019-05-19T03:13:48.563Z,105.97
2019-05-19T03:16:17.302Z,104.87
2019-05-19T03:18:46.031Z,112.28
2019-05-19T03:21:14.782Z,112.68
2019-05-19T03:23:43.509Z,113.05
2019-05-19T03:26:12.254Z,108.97
2019-05-19T03:28:41.021Z,110.72
2019-05-19T03:31:11.413Z,111.28
2019-05-19T03:33:44.747Z,104.65
2019-05-19T03:38:41.397Z,106.03
2019-05-19T03:41:10.130Z,109.17
2019-05-19T03:43:38.873Z,109.72
2019-05-19T03:46:07.595Z,109.37
2019-05-19T03:48:36.338Z,112.75
2019-05-19T03:51:05.093Z,116.28
2019-05-19T03:53:33.828Z,111.92
2019-05-19T03:56:02.602Z,112.35
2019-05-19T03:58:31.352Z,120.47
2019-05-19T04:01:00.250Z,116.15
2019-05-19T04:03:28.982Z,109.15
2019-05-19T04:05:57.732Z,110.45
2019-05-19T04:08:26.533Z,106.95
2019-05-19T04:10:55.261Z,114.15
2019-05-19T04:13:23.937Z,113.55
2019-05-19T04:15:52.677Z,116.15
2019-05-19T04:18:21.446Z,115.10
2019-05-19T04:20:50.177Z,119.70
2019-05-19T04:23:18.933Z,111.70
2019-05-19T04:25:47.672Z,107.35
2019-05-19T04:28:16.402Z,114.77
2019-05-19T04:30:45.171Z,110.78
2019-05-19T04:33:13.880Z,111.57
2019-05-19T04:35:42.616Z,110.65
2019-05-19T04:38:11.368Z,114.90
2019-05-19T04:40:40.099Z,114.15
2019-05-19T04:43:08.863Z,107.97
2019-05-19T04:45:37.594Z,111.25
2019-05-19T04:48:09.340Z,106.27
2019-05-19T04:50:36.695Z,111.68
2019-05-19T04:53:05.411Z,113.40
2019-05-19T04:55:34.163Z,114.90
2019-05-19T04:58:02.899Z,109.15
2019-05-19T05:00:31.654Z,113.25
2019-05-19T05:03:00.874Z,114.90
2019-05-19T05:05:29.594Z,111.15
2019-05-19T05:07:58.347Z,111.12
2019-05-19T05:10:27.089Z,112.32
2019-05-19T05:12:55.825Z,111.77
2019-05-19T05:15:24.541Z,114.82
2019-05-19T05:17:53.212Z,110.35
2019-05-19T05:20:21.985Z,110.03
2019-05-19T05:22:50.730Z,113.75
2019-05-19T05:25:19.531Z,118.53
2019-05-19T05:27:48.271Z,117.97
2019-05-19T05:30:17.057Z,117.87
2019-05-19T05:32:45.717Z,119.42
2019-05-19T05:35:15.012Z,116.77
2019-05-19T05:37:43.765Z,114.75
2019-05-19T05:40:12.617Z,119.40
2019-05-19T05:42:41.349Z,115.82
2019-05-19T05:45:10.404Z,121.82
2019-05-19T05:47:39.169Z,118.30
2019-05-19T05:50:08.161Z,112.22
2019-05-19T05:52:38.947Z,119.75
2019-05-19T05:55:07.633Z,115.45
2019-05-19T05:57:39.020Z,117.13
2019-05-19T06:00:09.818Z,121.13
2019-05-19T06:02:38.540Z,113.15
2019-05-19T06:05:07.857Z,117.55
2019-05-19T06:07:36.608Z,112.70
2019-05-19T06:10:07.380Z,117.03
2019-05-19T06:12:36.037Z,112.32
2019-05-19T06:15:05.928Z,118.15
2019-05-19T06:17:34.665Z,114.88
2019-05-19T06:20:04.782Z,118.30
2019-05-19T06:22:33.749Z,118.37
2019-05-19T06:25:02.521Z,116.67
2019-05-19T06:27:31.501Z,114.62
2019-05-19T06:30:00.266Z,117.33
2019-05-19T06:32:30.635Z,114.35
2019-05-19T06:34:59.366Z,120.10
2019-05-19T06:37:28.118Z,120.65
2019-05-19T06:39:56.853Z,116.28
2019-05-19T06:42:25.591Z,116.42
2019-05-19T06:44:54.322Z,111.97
2019-05-19T06:47:23.075Z,112.05
2019-05-19T06:49:51.837Z,117.77
2019-05-19T06:52:20.580Z,119.75
2019-05-19T06:54:49.253Z,121.37
2019-05-19T06:57:17.989Z,121.45
2019-05-19T06:59:46.743Z,116.82
2019-05-19T07:02:15.471Z,123.45
2019-05-19T07:04:47.368Z,119.85
2019-05-19T07:07:16.095Z,122.92
2019-05-19T07:09:57.533Z,121.53
2019-05-19T07:12:15.147Z,121.25
2019-05-19T07:14:43.894Z,124.70
2019-05-19T07:17:12.811Z,128.10
2019-05-19T07:19:41.561Z,136.22
2019-05-19T07:22:10.296Z,127.60
2019-05-19T07:24:39.051Z,128.97
2019-05-19T07:27:07.783Z,129.15
2019-05-19T07:29:36.545Z,128.57
2019-05-19T07:32:05.284Z,131.07
2019-05-19T07:34:34.065Z,137.97
2019-05-19T07:37:02.782Z,132.72
2019-05-19T07:39:31.574Z,132.15
2019-05-19T07:42:00.321Z,147.87
2019-05-19T07:44:29.127Z,147.13
2019-05-19T07:46:57.842Z,154.42
2019-05-19T07:49:26.578Z,147.78
2019-05-19T07:51:55.317Z,138.47
2019-05-19T07:54:24.135Z,141.73
2019-05-19T07:56:53.114Z,150.53
2019-05-19T07:59:21.809Z,146.57
2019-05-19T08:01:50.652Z,146.32
2019-05-19T08:04:19.326Z,142.05
2019-05-19T08:06:48.086Z,144.50
2019-05-19T08:09:16.829Z,145.35
2019-05-19T08:11:45.565Z,143.52
2019-05-19T08:14:14.313Z,138.10
2019-05-19T08:16:42.996Z,126.92
2019-05-19T08:19:11.761Z,131.65
2019-05-19T08:21:40.489Z,124.15
2019-05-19T08:24:09.252Z,124.92
2019-05-19T08:26:37.981Z,115.03
2019-05-19T08:29:06.722Z,115.30
2019-05-19T08:31:35.452Z,110.40
2019-05-19T08:34:04.374Z,114.85
2019-05-19T08:36:33.105Z,113.83
2019-05-19T08:39:01.862Z,114.88
2019-05-19T08:41:30.593Z,117.75
2019-05-19T08:43:59.354Z,110.17
2019-05-19T08:46:28.092Z,107.50
2019-05-19T08:48:58.529Z,105.87
2019-05-19T08:51:27.223Z,107.58
2019-05-19T08:53:56.061Z,110.20
2019-05-19T08:56:24.796Z,104.92
2019-05-19T08:58:53.614Z,101.95
2019-05-19T09:01:22.310Z,105.67
2019-05-19T09:03:51.049Z,103.62
2019-05-19T09:06:19.796Z,94.75
2019-05-19T09:08:48.523Z,105.07
2019-05-19T09:11:17.275Z,104.65
2019-05-19T09:13:46.001Z,102.17
2019-05-19T09:16:14.753Z,96.53
2019-05-19T09:18:43.489Z,98.72
2019-05-19T09:21:12.259Z,93.37
2019-05-19T09:23:41.003Z,92.42
2019-05-19T09:26:09.723Z,93.92
2019-05-19T09:28:38.533Z,92.92
2019-05-19T09:31:07.210Z,92.47
2019-05-19T09:33:35.941Z,93.42
2019-05-19T09:36:04.677Z,92.35
2019-05-19T09:38:33.451Z,92.30
2019-05-19T09:41:05.854Z,96.05
2019-05-19T09:43:34.594Z,94.67
2019-05-19T09:46:03.331Z,94.77
2019-05-19T09:48:32.102Z,89.37
2019-05-19T09:51:00.822Z,88.35
2019-05-19T09:53:29.573Z,90.50
2019-05-19T09:55:58.319Z,87.33
2019-05-19T09:58:27.074Z,85.70
2019-05-19T10:00:55.810Z,82.85
2019-05-19T10:03:24.601Z,87.22
2019-05-19T10:05:53.253Z,82.50
2019-05-19T10:08:27.729Z,82.35
2019-05-19T10:11:17.999Z,87.57
2019-05-19T10:13:46.749Z,79.65
2019-05-19T10:16:15.549Z,79.50
2019-05-19T10:18:44.449Z,77.12
2019-05-19T10:21:13.482Z,80.92
2019-05-19T10:23:42.214Z,84.10
2019-05-19T10:26:11.039Z,80.53
2019-05-19T10:28:39.763Z,78.78
2019-05-19T10:31:08.584Z,81.97
2019-05-19T10:33:37.326Z,76.33
2019-05-19T10:36:06.122Z,78.12
2019-05-19T10:38:34.862Z,81.08
2019-05-19T10:41:03.616Z,77.12
2019-05-19T10:43:32.296Z,79.03
2019-05-19T10:46:01.026Z,78.78
2019-05-19T10:48:29.772Z,72.80
2019-05-19T10:50:58.549Z,75.70
2019-05-19T10:53:27.300Z,80.10
2019-05-19T10:55:56.013Z,84.72
2019-05-19T10:58:24.757Z,79.92
2019-05-19T11:00:53.442Z,78.60
2019-05-19T11:03:22.178Z,88.07
2019-05-19T11:05:50.944Z,79.62
2019-05-19T11:08:19.684Z,80.62
2019-05-19T11:10:48.485Z,84.00
2019-05-19T11:13:17.213Z,96.97
2019-05-19T11:15:46.159Z,93.70
2019-05-19T11:18:14.873Z,94.90
2019-05-19T11:20:45.130Z,92.30
2019-05-19T11:23:13.872Z,98.12
2019-05-19T11:25:51.098Z,98.05
2019-05-19T11:28:13.378Z,100.12
2019-05-19T11:30:42.106Z,89.75
2019-05-19T11:33:10.858Z,83.40
2019-05-19T11:35:39.589Z,80.03
2019-05-19T11:38:08.316Z,83.42
2019-05-19T11:40:37.107Z,76.42
2019-05-19T11:43:05.854Z,79.40
2019-05-19T11:45:34.942Z,73.75
2019-05-19T11:48:03.690Z,75.87
2019-05-19T11:50:33.379Z,77.25
2019-05-19T11:53:02.099Z,76.97
2019-05-19T11:55:30.850Z,82.27
2019-05-19T11:57:59.571Z,83.45
2019-05-19T12:00:28.300Z,82.40
2019-05-19T12:02:57.053Z,78.42
2019-05-19T12:05:25.862Z,79.75
2019-05-19T12:07:54.581Z,80.87
2019-05-19T12:10:23.328Z,79.53
2019-05-19T12:12:52.051Z,74.17
2019-05-19T12:15:22.631Z,77.27
2019-05-19T12:17:51.369Z,70.97
2019-05-19T12:20:20.115Z,70.22
2019-05-19T12:22:48.790Z,63.83
2019-05-19T12:25:17.606Z,65.15
2019-05-19T12:27:46.361Z,61.88
2019-05-19T12:30:19.981Z,61.48
2019-05-19T12:32:48.786Z,54.88
2019-05-19T12:35:17.667Z,56.33
2019-05-19T12:37:46.411Z,58.63
2019-05-19T12:40:15.285Z,53.95
2019-05-19T12:42:43.965Z,56.23
2019-05-19T12:45:13.345Z,50.38
2019-05-19T12:47:42.195Z,48.65
2019-05-19T12:50:11.507Z,49.42
2019-05-19T12:52:40.258Z,51.37
2019-05-19T12:55:09.378Z,51.73
2019-05-19T12:57:38.733Z,49.27
2019-05-19T13:00:08.220Z,50.28
2019-05-19T13:02:38.187Z,48.20
2019-05-19T13:05:08.706Z,51.50
2019-05-19T13:07:37.505Z,52.88
2019-05-19T13:10:08.190Z,49.27
2019-05-19T13:12:36.998Z,51.08
2019-05-19T13:15:07.761Z,51.92
2019-05-19T13:17:36.638Z,53.52
2019-05-19T13:20:06.666Z,52.85
2019-05-19T13:22:35.406Z,57.62
2019-05-19T13:25:05.865Z,53.58
2019-05-19T13:27:34.599Z,54.55
2019-05-19T13:30:03.895Z,56.08
2019-05-19T13:32:32.621Z,57.50
2019-05-19T13:35:01.377Z,59.80
2019-05-19T13:37:30.182Z,57.70
2019-05-19T13:39:58.905Z,62.25
2019-05-19T13:42:27.704Z,64.55
2019-05-19T13:44:56.382Z,62.15
2019-05-19T13:47:25.127Z,59.30
2019-05-19T13:49:53.879Z,60.00
2019-05-19T13:52:22.631Z,64.58
2019-05-19T13:54:51.396Z,66.60
2019-05-19T13:57:20.091Z,60.40
2019-05-19T13:59:48.839Z,57.70
2019-05-19T14:02:17.594Z,53.45
2019-05-19T14:04:46.343Z,51.55
2019-05-19T14:07:15.193Z,54.03
2019-05-19T14:09:43.907Z,50.03
2019-05-19T14:12:12.637Z,52.35
2019-05-19T14:14:41.398Z,57.45
2019-05-19T14:17:10.144Z,50.15
2019-05-19T14:19:38.868Z,50.85
2019-05-19T14:22:07.602Z,53.58
2019-05-19T14:24:36.329Z,50.95
2019-05-19T14:27:05.012Z,50.60
2019-05-19T14:29:33.780Z,51.75
2019-05-19T14:32:02.486Z,55.52
2019-05-19T14:34:31.639Z,55.63
2019-05-19T14:37:00.302Z,56.35
2019-05-19T14:39:29.040Z,54.27
2019-05-19T14:41:59.447Z,57.48
2019-05-19T14:44:28.249Z,56.98
2019-05-19T14:46:56.965Z,54.83
2019-05-19T14:49:25.700Z,56.23
2019-05-19T14:51:54.445Z,56.45
2019-05-19T14:54:23.188Z,54.88
2019-05-19T14:56:51.945Z,56.98
2019-05-19T14:59:20.668Z,56.48
2019-05-19T15:01:49.409Z,52.33
2019-05-19T15:04:18.157Z,55.10
2019-05-19T15:06:46.881Z,52.25
2019-05-19T15:09:15.703Z,53.58
2019-05-19T15:11:44.454Z,53.00
2019-05-19T15:14:13.200Z,54.58
2019-05-19T15:16:41.961Z,53.10
2019-05-19T15:19:10.703Z,57.17
2019-05-19T15:21:39.518Z,48.65
2019-05-19T15:24:08.283Z,54.48
2019-05-19T15:26:37.066Z,52.93
2019-05-19T15:29:05.897Z,57.55
2019-05-19T15:31:34.621Z,56.08
2019-05-19T15:34:03.327Z,54.65
2019-05-19T15:36:32.082Z,53.00
2019-05-19T15:39:00.805Z,54.42
2019-05-19T15:41:29.573Z,55.70
2019-05-19T15:43:58.304Z,54.08
2019-05-19T15:46:27.032Z,50.45
2019-05-19T15:48:55.789Z,53.35
2019-05-19T15:51:28.917Z,54.77
2019-05-19T15:53:54.859Z,53.68
2019-05-19T15:56:23.622Z,52.65
2019-05-19T15:58:52.349Z,53.42
2019-05-19T16:01:21.105Z,56.25
2019-05-19T16:03:49.848Z,50.40
2019-05-19T16:06:18.619Z,54.75
2019-05-19T16:08:47.354Z,50.40
2019-05-19T16:11:16.110Z,48.87
2019-05-19T16:13:44.844Z,54.25
2019-05-19T16:16:13.569Z,56.55
2019-05-19T16:18:42.318Z,53.30
2019-05-19T16:21:11.058Z,52.30
2019-05-19T16:23:39.799Z,54.33
2019-05-19T16:26:08.525Z,56.83
2019-05-19T16:28:37.278Z,56.90
2019-05-19T16:31:06.058Z,57.33
2019-05-19T16:33:34.762Z,60.70
2019-05-19T16:36:03.518Z,64.60
2019-05-19T16:38:32.270Z,62.95
2019-05-19T16:41:01.024Z,60.05
2019-05-19T16:43:29.754Z,64.50
2019-05-19T16:45:58.513Z,59.27
2019-05-19T16:48:27.250Z,62.00
2019-05-19T16:50:55.988Z,62.58
2019-05-19T16:53:24.758Z,63.52
2019-05-19T16:55:53.503Z,62.38
2019-05-19T16:58:22.285Z,63.83
2019-05-19T17:00:51.049Z,66.75
2019-05-19T17:03:19.852Z,66.65
2019-05-19T17:05:48.514Z,65.22
2019-05-19T17:08:17.283Z,67.55
2019-05-19T17:10:46.114Z,64.30
2019-05-19T17:13:14.822Z,69.65
2019-05-19T17:15:43.613Z,64.40
2019-05-19T17:18:12.367Z,63.85
2019-05-19T17:20:41.104Z,64.30
2019-05-19T17:23:09.846Z,81.87
2019-05-19T17:25:38.573Z,75.45
2019-05-19T17:28:07.318Z,78.90
2019-05-19T17:30:36.055Z,83.52
2019-05-19T17:33:04.779Z,83.25
2019-05-19T17:35:33.563Z,90.10
2019-05-19T17:38:02.336Z,90.55
2019-05-19T17:40:31.082Z,97.88
2019-05-19T17:42:59.842Z,107.30
2019-05-19T17:45:28.601Z,96.67
2019-05-19T17:48:09.008Z,105.25
2019-05-19T17:50:32.749Z,105.37
2019-05-19T17:53:02.051Z,101.85
2019-05-19T17:55:33.515Z,125.95
2019-05-19T17:58:03.182Z,108.72
2019-05-19T18:00:44.129Z,125.97
2019-05-19T18:03:12.426Z,102.60
2019-05-19T18:05:41.261Z,115.47
2019-05-19T18:08:10.071Z,119.10
2019-05-19T18:10:38.830Z,111.17
2019-05-19T18:13:07.645Z,101.30
2019-05-19T18:15:37.196Z,123.58
2019-05-19T18:18:06.017Z,129.35
2019-05-19T18:20:35.013Z,108.57
2019-05-19T18:23:03.852Z,114.12
2019-05-19T18:25:33.086Z,112.28
2019-05-19T18:28:01.810Z,117.97
2019-05-19T18:30:30.638Z,136.50
2019-05-19T18:32:59.391Z,140.28
2019-05-19T18:35:28.150Z,111.60
2019-05-19T18:37:56.896Z,120.77
2019-05-19T18:40:25.881Z,137.22
2019-05-19T18:42:54.706Z,121.77
2019-05-19T18:45:23.681Z,143.75
2019-05-19T18:47:52.519Z,157.40
2019-05-19T18:50:21.321Z,131.55
2019-05-19T18:52:50.095Z,131.05
2019-05-19T18:55:18.854Z,138.40
2019-05-19T18:57:47.595Z,146.62
2019-05-19T19:00:22.121Z,135.03
2019-05-19T19:02:50.945Z,128.27
2019-05-19T19:05:19.741Z,125.72
2019-05-19T19:07:50.150Z,136.25
2019-05-19T19:10:18.897Z,132.80
2019-05-19T19:12:48.122Z,132.05
2019-05-19T19:15:17.193Z,131.00
2019-05-19T19:17:45.883Z,130.63
2019-05-19T19:20:15.603Z,129.50
2019-05-19T19:22:44.334Z,132.57
2019-05-19T19:25:13.622Z,142.50
2019-05-19T19:27:42.369Z,136.80
2019-05-19T19:30:11.539Z,140.25
2019-05-19T19:32:40.285Z,144.15
2019-05-19T19:35:09.901Z,144.50
2019-05-19T19:37:38.628Z,145.82
2019-05-19T19:40:08.317Z,147.50
2019-05-19T19:42:37.143Z,138.50
2019-05-19T19:45:06.268Z,140.35
2019-05-19T19:47:35.025Z,146.68
2019-05-19T19:50:07.873Z,136.07
2019-05-19T19:52:36.537Z,142.95
2019-05-19T19:55:06.038Z,123.35
2019-05-19T19:57:34.774Z,139.75
2019-05-19T20:00:17.353Z,145.15
2019-05-19T20:02:34.832Z,141.85
2019-05-19T20:05:03.739Z,138.50
2019-05-19T20:07:32.473Z,137.62
2019-05-19T20:10:01.235Z,132.75
2019-05-19T20:12:29.990Z,132.87
2019-05-19T20:14:58.739Z,142.22
2019-05-19T20:17:27.482Z,130.32
2019-05-19T20:19:56.237Z,111.52
2019-05-19T20:22:24.963Z,92.05
2019-05-19T20:24:53.725Z,87.45
2019-05-19T20:27:22.465Z,97.08
2019-05-19T20:29:51.192Z,100.65
2019-05-19T20:32:19.955Z,115.80
2019-05-19T20:34:48.740Z,111.17
2019-05-19T20:37:17.429Z,122.50
2019-05-19T20:39:46.195Z,138.82
2019-05-19T20:42:15.009Z,135.78
2019-05-19T20:44:43.786Z,147.05
2019-05-19T20:47:12.517Z,144.25
2019-05-19T20:49:41.297Z,137.65
2019-05-19T20:52:10.038Z,128.45
2019-05-19T20:54:38.773Z,128.12
2019-05-19T20:57:07.549Z,128.90
2019-05-19T20:59:36.276Z,145.55
2019-05-19T21:02:05.044Z,123.85
2019-05-19T21:04:33.781Z,122.70
2019-05-19T21:07:02.513Z,137.70
2019-05-19T21:09:31.329Z,139.68
2019-05-19T21:12:00.062Z,136.20
2019-05-19T21:14:28.862Z,131.78
2019-05-19T21:16:57.566Z,131.93
2019-05-19T21:19:26.292Z,123.38
2019-05-19T21:21:55.018Z,131.67
2019-05-19T21:24:23.788Z,136.22
2019-05-19T21:26:52.525Z,132.60
2019-05-19T21:29:21.254Z,131.70
2019-05-19T21:31:50.014Z,129.80
2019-05-19T21:34:18.693Z,122.07
2019-05-19T21:36:47.491Z,134.45
2019-05-19T21:39:16.182Z,124.42
2019-05-19T21:41:44.840Z,129.68
2019-05-19T21:44:13.601Z,141.70
2019-05-19T21:46:42.333Z,136.90
2019-05-19T21:49:11.073Z,132.35
2019-05-19T21:51:39.821Z,138.97
2019-05-19T21:54:08.508Z,122.33
2019-05-19T21:56:37.258Z,123.30
2019-05-19T21:59:05.990Z,128.40
2019-05-19T22:01:34.714Z,128.93
2019-05-19T22:04:03.557Z,125.27
2019-05-19T22:06:33.913Z,125.62
2019-05-19T22:09:02.717Z,124.27
2019-05-19T22:11:31.540Z,130.07
2019-05-19T22:14:00.311Z,125.62
2019-05-19T22:16:29.031Z,132.52
2019-05-19T22:18:57.774Z,111.30
2019-05-19T22:21:26.518Z,128.05
2019-05-19T22:23:55.261Z,124.50
2019-05-19T22:26:24.043Z,126.53
2019-05-19T22:28:52.830Z,136.05
2019-05-19T22:31:21.589Z,125.92
2019-05-19T22:33:50.341Z,125.05
2019-05-19T22:36:19.074Z,128.62
2019-05-19T22:38:47.795Z,127.10
2019-05-19T22:41:16.577Z,120.33
2019-05-19T22:43:45.325Z,122.22
2019-05-19T22:46:14.090Z,123.67
2019-05-19T22:48:45.694Z,136.52
2019-05-19T22:51:14.345Z,129.97
2019-05-19T22:53:43.106Z,129.18
2019-05-19T22:56:11.877Z,123.05
2019-05-19T22:58:41.665Z,122.10
2019-05-19T23:01:10.542Z,124.87
2019-05-19T23:03:39.301Z,113.10
2019-05-19T23:06:08.222Z,127.30
2019-05-19T23:08:37.142Z,113.15
2019-05-19T23:11:05.925Z,115.75
2019-05-19T23:13:34.681Z,123.20
2019-05-19T23:16:03.473Z,104.43
2019-05-19T23:18:32.204Z,114.88
2019-05-19T23:21:00.978Z,116.28
2019-05-19T23:23:29.750Z,112.40
2019-05-19T23:25:58.478Z,115.35
2019-05-19T23:28:27.245Z,112.12
2019-05-19T23:30:55.905Z,111.28
2019-05-19T23:33:24.649Z,107.50
2019-05-19T23:35:53.316Z,105.75
2019-05-19T23:38:22.072Z,110.57
2019-05-19T23:40:50.830Z,107.32
2019-05-19T23:43:19.565Z,111.95
2019-05-19T23:45:48.245Z,109.00
2019-05-19T23:48:16.974Z,99.62
2019-05-19T23:50:45.749Z,103.32
2019-05-19T23:53:14.497Z,108.22
2019-05-19T23:55:45.010Z,96.90
2019-05-19T23:58:13.713Z,95.40
